Time;durP1;ratioP1;P1;durP2;ratioP2;P2;SDS_P1;SDS_P2;PMS_P1;PMS_P2;Temp;Humidity;BMP_temperature;BMP_pressure;BME280_temperature;BME280_humidity;BME280_pressure;Samples;Min_cycle;Max_cycle;Signal;HPM_P1;HPM_P2
2022/07/10 00:06:58;;;;;;;4.75;1.83;;;;;;;13.90;88.94;100272.30;714054;1174;115453;-74
2022/07/10 00:22:00;;;;;;;4.75;1.80;;;;;;;13.81;89.58;100258.23;714597;1174;115236;-74
2022/07/10 00:37:04;;;;;;;2.88;1.78;;;;;;;14.94;84.02;100233.34;714176;1174;115224;-74
2022/07/10 00:52:10;;;;;;;4.88;2.85;;;;;;;13.77;90.09;100227.89;714648;1173;114663;-73
2022/07/10 01:07:15;;;;;;;5.60;2.13;;;;;;;13.15;90.55;100211.18;714153;1174;115140;-73
2022/07/10 01:22:17;;;;;;;5.73;2.18;;;;;;;13.15;92.72;100191.93;714195;1174;114461;-73
2022/07/10 01:37:20;;;;;;;3.40;2.43;;;;;;;13.15;93.21;100199.83;714352;1174;115261;-73
2022/07/10 01:52:22;;;;;;;3.78;2.28;;;;;;;13.28;94.57;100199.43;714174;1174;115680;-73
2022/07/10 02:07:26;;;;;;;7.03;2.77;;;;;;;13.56;94.84;100186.11;714277;1174;115661;-72
2022/07/10 02:22:28;;;;;;;9.95;4.00;;;;;;;13.64;94.31;100178.23;714221;1167;114970;-72
2022/07/10 02:37:31;;;;;;;6.43;2.70;;;;;;;13.61;95.45;100173.30;714057;1173;115600;-73
2022/07/10 02:52:33;;;;;;;4.13;1.97;;;;;;;13.53;96.89;100162.72;714154;1174;114332;-73
2022/07/10 03:07:36;;;;;;;5.55;2.75;;;;;;;13.71;97.41;100158.19;714548;1174;114559;-74
2022/07/10 03:22:39;;;;;;;12.03;2.53;;;;;;;13.91;97.61;100149.98;714892;1174;115529;-74
2022/07/10 03:37:42;;;;;;;2.70;1.68;;;;;;;14.28;98.93;100139.04;714805;1174;115278;-73
2022/07/10 03:52:46;;;;;;;3.50;2.40;;;;;;;14.66;99.62;100124.56;714457;1174;114148;-73
2022/07/10 04:07:48;;;;;;;5.98;1.20;;;;;;;15.14;98.81;100118.38;714190;1174;114665;-73
2022/07/10 04:22:50;;;;;;;8.08;1.53;;;;;;;15.29;100.00;100120.33;714067;1174;115360;-73
2022/07/10 04:37:53;;;;;;;8.55;1.75;;;;;;;15.46;100.00;100119.27;714143;1173;115423;-72
2022/07/10 04:52:55;;;;;;;4.08;1.38;;;;;;;15.78;100.00;100109.56;714446;1174;115172;-72
2022/07/10 05:07:58;;;;;;;6.03;1.55;;;;;;;16.25;99.74;100117.56;714511;1174;115191;-73
2022/07/10 05:23:01;;;;;;;2.25;1.30;;;;;;;16.40;98.49;100110.48;714627;1174;115009;-74
2022/07/10 05:38:04;;;;;;;3.20;1.63;;;;;;;16.59;96.70;100119.78;714632;1174;115597;-73
2022/07/10 05:53:06;;;;;;;3.17;1.27;;;;;;;16.99;94.24;100121.44;714505;1174;116125;-73
2022/07/10 06:08:11;;;;;;;7.35;1.80;;;;;;;17.38;92.46;100120.34;714715;1174;115183;-74
2022/07/10 06:23:14;;;;;;;5.95;1.95;;;;;;;17.92;90.41;100096.14;714616;1174;114433;-73
2022/07/10 06:38:16;;;;;;;5.50;1.70;;;;;;;18.10;87.67;100089.56;714690;1173;114291;-72
2022/07/10 06:53:23;;;;;;;3.93;1.23;;;;;;;18.57;86.12;100088.14;717015;1174;115593;-75
2022/07/10 07:08:26;;;;;;;2.90;1.30;;;;;;;18.73;84.89;100087.03;715008;1174;114039;-74
2022/07/10 07:23:28;;;;;;;2.73;1.30;;;;;;;19.38;83.58;100059.41;714937;1174;114132;-76
2022/07/10 07:38:30;;;;;;;4.87;1.50;;;;;;;18.34;82.88;100088.34;714536;1174;115948;-78
2022/07/10 07:53:33;;;;;;;2.63;0.90;;;;;;;18.69;84.04;100087.63;714539;1174;115628;-73
2022/07/10 08:08:35;;;;;;;3.05;1.40;;;;;;;18.77;85.86;100071.53;714629;1173;115526;-73
2022/07/10 08:23:38;;;;;;;2.83;1.03;;;;;;;19.16;86.41;100083.42;714510;1174;114641;-72
2022/07/10 08:38:41;;;;;;;2.45;1.25;;;;;;;19.37;82.32;100076.38;715017;1174;115730;-82
2022/07/10 08:53:44;;;;;;;3.43;1.30;;;;;;;20.24;79.02;100084.61;714522;1174;117024;-82
2022/07/10 09:09:03;;;;;;;1.95;0.90;;;;;;;20.97;77.63;100067.79;714859;1174;114617;-76
2022/07/10 09:24:08;;;;;;;1.08;0.60;;;;;;;19.57;76.23;100087.92;714759;1174;115791;-75
2022/07/10 09:39:11;;;;;;;3.53;1.28;;;;;;;21.22;75.90;100067.08;714639;1174;114971;-75
2022/07/10 09:54:14;;;;;;;3.20;1.20;;;;;;;20.26;76.28;100082.58;715194;1174;115488;-76
2022/07/10 10:09:31;;;;;;;3.20;1.00;;;;;;;21.11;75.51;100071.22;715131;1174;115412;-79
2022/07/10 10:24:36;;;;;;;2.60;0.70;;;;;;;21.86;71.96;100064.55;714602;1174;115454;-78
2022/07/10 10:39:55;;;;;;;4.67;1.60;;;;;;;22.26;69.29;100067.77;714603;1174;114005;-78
2022/07/10 10:55:04;;;;;;;3.75;2.23;;;;;;;23.51;67.71;100067.75;714594;1174;115522;-74
2022/07/10 11:10:30;;;;;;;2.55;1.00;;;;;;;22.14;65.67;100114.09;714948;1173;114605;-76
2022/07/10 11:25:50;;;;;;;1.47;0.80;;;;;;;18.40;74.64;100098.22;715350;1174;115506;-84
2022/07/10 11:40:56;;;;;;;1.63;0.80;;;;;;;18.88;82.20;100136.59;715084;1174;114756;-88
2022/07/10 11:55:59;;;;;;;3.60;1.23;;;;;;;18.69;86.72;100160.16;715800;1173;115558;-84
2022/07/10 12:11:12;;;;;;;2.20;1.00;;;;;;;17.83;89.53;100163.56;715398;1173;114140;-84
2022/07/10 12:26:16;;;;;;;2.48;1.28;;;;;;;17.06;92.82;100223.86;715926;1173;114669;-83
2022/07/10 12:41:22;;;;;;;2.28;0.90;;;;;;;16.80;95.42;100200.39;717823;1174;114157;-84
2022/07/10 12:56:35;;;;;;;2.53;1.58;;;;;;;17.11;97.02;100189.70;714752;1174;114384;-76
2022/07/10 13:11:37;;;;;;;3.10;1.15;;;;;;;18.05;97.77;100193.63;714513;1174;114083;-74
2022/07/10 13:26:40;;;;;;;3.33;1.20;;;;;;;19.09;94.04;100189.73;714194;1174;115030;-74
2022/07/10 13:41:42;;;;;;;1.05;0.95;;;;;;;19.64;92.71;100189.05;714826;1174;114742;-73
2022/07/10 13:56:45;;;;;;;0.93;0.73;;;;;;;20.81;89.25;100182.83;714652;1174;114193;-73
2022/07/10 14:11:47;;;;;;;1.68;1.40;;;;;;;21.61;83.34;100169.39;714396;1174;114647;-74
2022/07/10 14:26:50;;;;;;;1.75;0.80;;;;;;;20.41;81.65;100179.08;714032;1174;114815;-73
2022/07/10 14:41:54;;;;;;;2.03;0.60;;;;;;;21.23;82.09;100213.56;713990;1174;114272;-74
2022/07/10 14:56:56;;;;;;;0.98;0.75;;;;;;;22.17;79.56;100205.30;714199;1174;115586;-74
2022/07/10 15:12:06;;;;;;;1.68;0.60;;;;;;;21.66;75.71;100232.83;714594;1173;114137;-73
2022/07/10 15:27:10;;;;;;;2.50;1.20;;;;;;;20.84;78.12;100233.91;714639;1174;114449;-75
2022/07/10 15:42:12;;;;;;;1.45;0.80;;;;;;;20.20;80.54;100237.83;714651;1174;114447;-75
2022/07/10 15:57:15;;;;;;;2.08;1.15;;;;;;;19.44;81.94;100258.92;714482;1174;115460;-75
2022/07/10 16:12:17;;;;;;;4.18;1.03;;;;;;;18.54;84.80;100249.72;714212;1174;114159;-74
2022/07/10 16:27:20;;;;;;;0.88;0.68;;;;;;;17.96;85.85;100259.28;714101;1174;115430;-74
2022/07/10 16:42:23;;;;;;;5.00;1.63;;;;;;;17.84;87.17;100257.23;714542;1174;114813;-74
2022/07/10 16:57:25;;;;;;;7.75;3.20;;;;;;;17.83;87.43;100256.42;715311;1174;115549;-75
2022/07/10 17:12:28;;;;;;;1.60;0.73;;;;;;;17.39;89.69;100275.77;715002;1174;115391;-74
2022/07/10 17:27:30;;;;;;;1.85;0.70;;;;;;;16.86;90.70;100243.89;714588;1174;115712;-74
2022/07/10 17:42:34;;;;;;;1.38;0.93;;;;;;;16.51;93.73;100262.83;714461;1174;115418;-74
2022/07/10 17:57:37;;;;;;;3.77;1.10;;;;;;;16.26;94.78;100267.44;714264;1174;115175;-73
2022/07/10 18:12:39;;;;;;;2.43;1.30;;;;;;;15.92;96.87;100273.84;714495;1174;115802;-75
2022/07/10 18:27:42;;;;;;;3.17;1.93;;;;;;;16.00;96.51;100273.00;714127;1174;114171;-75
2022/07/10 18:42:47;;;;;;;3.43;1.80;;;;;;;15.79;96.61;100256.64;714348;1174;114044;-74
2022/07/10 18:57:50;;;;;;;3.43;1.50;;;;;;;15.70;97.01;100273.53;714560;1174;114586;-74
2022/07/10 19:12:54;;;;;;;3.53;1.30;;;;;;;15.71;97.16;100296.34;714815;1174;114005;-74
2022/07/10 19:27:58;;;;;;;2.48;1.30;;;;;;;15.27;97.94;100296.74;718788;1174;115405;-72
2022/07/10 19:43:02;;;;;;;3.93;1.57;;;;;;;15.21;99.53;100323.81;714295;1174;115056;-72
2022/07/10 19:58:06;;;;;;;5.37;2.00;;;;;;;15.33;98.32;100327.77;714457;1174;114091;-73
2022/07/10 20:13:10;;;;;;;5.55;1.68;;;;;;;14.95;99.71;100340.61;715123;1174;115410;-73
2022/07/10 20:28:13;;;;;;;5.40;2.70;;;;;;;14.60;99.65;100347.77;714898;1174;115258;-73
2022/07/10 20:43:17;;;;;;;4.55;1.88;;;;;;;14.30;100.00;100349.95;714382;1173;115332;-73
2022/07/10 20:58:19;;;;;;;2.95;2.10;;;;;;;14.02;100.00;100352.78;713932;1174;115687;-72
2022/07/10 21:13:25;;;;;;;4.08;2.45;;;;;;;14.27;100.00;100350.28;713944;1174;114689;-73
2022/07/10 21:28:29;;;;;;;5.40;2.20;;;;;;;14.30;100.00;100355.23;713855;1173;114814;-74
2022/07/10 21:43:31;;;;;;;14.57;12.60;;;;;;;14.51;100.00;100367.20;713968;1173;115771;-73
2022/07/10 21:58:33;;;;;;;3.63;2.15;;;;;;;14.42;100.00;100367.15;713759;1173;115991;-74
2022/07/10 22:13:36;;;;;;;3.57;1.30;;;;;;;14.57;100.00;100355.99;713859;1174;115293;-73
2022/07/10 22:28:38;;;;;;;0.70;0.50;;;;;;;14.48;100.00;100348.05;713679;1174;115539;-73
2022/07/10 22:43:42;;;;;;;10.13;5.48;;;;;;;14.42;100.00;100340.76;713877;1174;115572;-72
2022/07/10 22:58:44;;;;;;;10.45;4.50;;;;;;;14.06;100.00;100333.02;713864;1173;115552;-73
2022/07/10 23:13:46;;;;;;;2.13;1.13;;;;;;;14.02;100.00;100325.59;713897;1174;115961;-72
2022/07/10 23:28:49;;;;;;;5.43;3.88;;;;;;;13.91;100.00;100326.66;714081;1174;115303;-73
2022/07/10 23:43:51;;;;;;;1.77;1.27;;;;;;;13.81;100.00;100327.59;714152;1174;114913;-72
2022/07/10 23:58:53;;;;;;;1.17;1.03;;;;;;;13.96;100.00;100324.39;713960;1174;115752;-73
